Rügen Airport EDCG

Flugplatz Daten

Name: Rügen Airport

Ident: EDCG

Lat: 54,3833313

Long: 13,3255558

Platzhöhe: 69 ft

IataCode:

City: Rügen

Metar

2019/06/21 16:00
CWEU 211600Z 18021KT 3SM -SN FEW007 OVC027 01/M01 A2951 RMK ST1SC7 VIS REDCG RPDLY SLP996

Taf

Gewünschte Webcam nicht vorhanden? Dann fügen Sie eine hinzu. Sie wird dann so schnell wie möglich freigeschaltet
Url: Title: